Time;durP1;ratioP1;P1;durP2;ratioP2;P2;SDS_P1;SDS_P2;PMS_P1;PMS_P2;Temp;Humidity;BMP_temperature;BMP_pressure;BME280_temperature;BME280_humidity;BME280_pressure;Samples;Min_cycle;Max_cycle;Signal;HPM_P1;HPM_P2
2023/07/05 00:01:41;;;;;;;;;;;;;;;15.31;93.97;100392.19;5042725;28;1239;-83
2023/07/05 00:04:08;;;;;;;;;;;;;;;15.37;94.22;100391.50;5036450;28;1232;-84
2023/07/05 00:06:33;;;;;;;;;;;;;;;15.40;93.10;100380.72;5030309;28;1773;-84
2023/07/05 00:08:58;;;;;;;;;;;;;;;15.39;95.65;100373.84;5030631;28;1683;-85
2023/07/05 00:11:23;;;;;;;;;;;;;;;15.38;95.42;100372.22;5035966;28;1642;-84
2023/07/05 00:13:49;;;;;;;;;;;;;;;15.37;94.06;100365.38;5033404;28;1784;-84
2023/07/05 00:16:14;;;;;;;;;;;;;;;15.38;94.57;100361.78;5028602;28;1355;-83
2023/07/05 00:18:39;;;;;;;;;;;;;;;15.37;94.09;100354.94;5031078;28;1329;-83
2023/07/05 00:21:08;;;;;;;;;;;;;;;15.37;93.86;100344.47;5035753;28;1898;-84
2023/07/05 00:23:35;;;;;;;;;;;;;;;15.39;94.07;100347.72;5032098;28;1325;-84
2023/07/05 00:26:01;;;;;;;;;;;;;;;15.39;95.22;100334.66;5029334;28;1237;-85
2023/07/05 00:28:27;;;;;;;;;;;;;;;15.39;94.20;100311.16;5034181;28;1293;-83
2023/07/05 00:30:52;;;;;;;;;;;;;;;15.39;93.99;100303.31;5038180;28;1268;-83
2023/07/05 00:33:17;;;;;;;;;;;;;;;15.38;94.34;100298.25;5025743;28;1334;-83
2023/07/05 00:35:49;;;;;;;;;;;;;;;15.38;95.53;100283.38;5026932;28;1284;-82
2023/07/05 00:38:15;;;;;;;;;;;;;;;15.37;96.55;100281.75;5026846;28;1307;-82
2023/07/05 00:40:40;;;;;;;;;;;;;;;15.38;95.77;100259.06;5030418;28;1898;-83
2023/07/05 00:43:05;;;;;;;;;;;;;;;15.36;96.06;100246.13;5034690;28;1628;-83
2023/07/05 00:45:49;;;;;;;;;;;;;;;15.37;95.92;100245.19;5030145;28;1283;-83
2023/07/05 00:48:15;;;;;;;;;;;;;;;15.38;96.01;100241.56;5029852;28;1295;-83
2023/07/05 00:50:41;;;;;;;;;;;;;;;15.35;94.99;100252.34;5030519;28;1492;-83
2023/07/05 00:53:07;;;;;;;;;;;;;;;15.36;95.36;100225.25;5028113;28;1481;-82
2023/07/05 00:55:33;;;;;;;;;;;;;;;15.34;95.48;100224.59;5027732;28;1319;-84
2023/07/05 00:57:59;;;;;;;;;;;;;;;15.33;95.00;100222.97;5027168;28;1344;-83
2023/07/05 01:00:24;;;;;;;;;;;;;;;15.33;94.38;100215.16;5025139;28;1967;-83
2023/07/05 01:02:50;;;;;;;;;;;;;;;15.32;95.70;100223.16;5025572;28;1266;-83
2023/07/05 01:05:16;;;;;;;;;;;;;;;15.35;96.27;100226.22;5030386;28;1325;-83
2023/07/05 01:07:42;;;;;;;;;;;;;;;15.37;96.02;100219.06;5021315;28;1517;-82
2023/07/05 01:10:15;;;;;;;;;;;;;;;15.38;96.43;100212.84;5040433;28;1049;-82
2023/07/05 01:12:46;;;;;;;;;;;;;;;15.38;95.78;100205.00;5034297;28;1337;-82
2023/07/05 01:15:15;;;;;;;;;;;;;;;15.39;96.04;100206.63;5033974;28;1128;-84
2023/07/05 01:17:47;;;;;;;;;;;;;;;15.39;96.36;100201.38;5037040;28;1503;-83
2023/07/05 01:20:32;;;;;;;;;;;;;;;15.38;96.31;100194.53;5032288;28;1959;-83
2023/07/05 01:23:16;;;;;;;;;;;;;;;15.38;96.68;100189.31;5037184;28;1089;-84
2023/07/05 01:25:55;;;;;;;;;;;;;;;15.36;97.03;100172.97;5032163;28;1140;-84
2023/07/05 01:28:38;;;;;;;;;;;;;;;15.37;97.03;100184.28;5027170;28;1344;-84
2023/07/05 01:31:12;;;;;;;;;;;;;;;15.36;96.10;100188.66;5031057;28;1122;-83
2023/07/05 01:33:42;;;;;;;;;;;;;;;15.33;97.60;100168.09;5023625;28;1515;-84
2023/07/05 01:36:08;;;;;;;;;;;;;;;15.31;96.82;100154.41;5032385;28;1189;-83
2023/07/05 01:38:33;;;;;;;;;;;;;;;15.28;98.29;100156.53;5031763;28;1058;-83
2023/07/05 01:41:00;;;;;;;;;;;;;;;15.27;99.60;100155.75;5030398;28;1957;-82
2023/07/05 01:43:26;;;;;;;;;;;;;;;15.26;98.18;100154.13;5028686;28;1361;-84
2023/07/05 01:45:51;;;;;;;;;;;;;;;15.24;98.36;100166.50;5028649;28;1171;-83
2023/07/05 01:48:26;;;;;;;;;;;;;;;15.25;98.04;100162.09;5033103;28;1327;-83
2023/07/05 01:51:25;;;;;;;;;;;;;;;15.26;98.48;100161.94;5021514;28;1235;-83
2023/07/05 01:53:59;;;;;;;;;;;;;;;15.27;98.49;100160.16;5017647;28;1356;-81
2023/07/05 01:56:28;;;;;;;;;;;;;;;15.29;98.32;100155.56;5023849;28;1431;-83
2023/07/05 01:58:54;;;;;;;;;;;;;;;15.32;98.52;100173.50;5020719;28;1144;-84
2023/07/05 02:01:21;;;;;;;;;;;;;;;15.33;98.72;100162.88;5020350;28;1989;-83
2023/07/05 02:03:49;;;;;;;;;;;;;;;15.35;99.31;100153.06;5020024;28;1480;-83
2023/07/05 02:06:15;;;;;;;;;;;;;;;15.37;98.17;100138.03;5032928;28;1261;-83
2023/07/05 02:08:42;;;;;;;;;;;;;;;15.36;99.32;100154.69;5031425;28;1129;-83
2023/07/05 02:11:08;;;;;;;;;;;;;;;15.35;99.06;100153.06;5044600;28;1432;-84
2023/07/05 02:13:33;;;;;;;;;;;;;;;15.37;98.59;100156.34;5030875;28;1223;-82
2023/07/05 02:15:58;;;;;;;;;;;;;;;15.38;98.54;100163.19;5037040;28;1514;-83
2023/07/05 02:18:24;;;;;;;;;;;;;;;15.36;98.71;100170.38;5033099;28;1493;-83
2023/07/05 02:20:49;;;;;;;;;;;;;;;15.35;98.51;100176.59;5024435;28;1906;-85
2023/07/05 02:23:14;;;;;;;;;;;;;;;15.36;99.06;100169.56;5029920;28;994;-84
2023/07/05 02:25:40;;;;;;;;;;;;;;;15.34;98.75;100182.78;5028651;28;1248;-83
2023/07/05 02:28:06;;;;;;;;;;;;;;;15.34;98.66;100182.78;5023554;28;1299;-84
2023/07/05 02:30:33;;;;;;;;;;;;;;;15.31;98.10;100183.16;5036253;28;1250;-83
2023/07/05 02:32:58;;;;;;;;;;;;;;;15.24;97.56;100194.44;5026949;28;1256;-83
2023/07/05 02:35:24;;;;;;;;;;;;;;;15.20;97.42;100199.22;5030574;28;1280;-83
2023/07/05 02:37:49;;;;;;;;;;;;;;;15.17;96.78;100196.94;5025941;28;1284;-84
2023/07/05 02:40:15;;;;;;;;;;;;;;;15.20;96.20;100201.81;5028126;28;1989;-83
2023/07/05 02:42:40;;;;;;;;;;;;;;;15.07;94.93;100211.97;5034816;28;1276;-83
2023/07/05 02:45:06;;;;;;;;;;;;;;;14.97;94.80;100221.84;5029821;28;1264;-84
2023/07/05 02:47:31;;;;;;;;;;;;;;;14.88;94.37;100221.84;5030184;28;1272;-83
2023/07/05 02:49:56;;;;;;;;;;;;;;;14.80;94.22;100214.03;5033626;28;1396;-83
2023/07/05 02:52:21;;;;;;;;;;;;;;;14.74;92.96;100222.53;5029170;28;1409;-84
2023/07/05 02:54:46;;;;;;;;;;;;;;;14.59;92.53;100224.19;5031149;28;1193;-83
2023/07/05 02:57:12;;;;;;;;;;;;;;;14.53;92.21;100232.69;5029470;28;1384;-83
2023/07/05 02:59:37;;;;;;;;;;;;;;;14.38;92.10;100236.91;5029668;28;1898;-84
2023/07/05 03:02:02;;;;;;;;;;;;;;;14.30;91.98;100235.94;5041445;28;1625;-83
2023/07/05 03:04:28;;;;;;;;;;;;;;;14.23;91.86;100232.34;5027472;28;1242;-83
2023/07/05 03:06:53;;;;;;;;;;;;;;;14.18;91.63;100236.44;5027133;28;1343;-83
2023/07/05 03:09:18;;;;;;;;;;;;;;;14.15;92.41;100236.75;5027837;28;1515;-83
2023/07/05 03:11:43;;;;;;;;;;;;;;;14.03;91.85;100233.63;5029450;28;1342;-83
2023/07/05 03:14:09;;;;;;;;;;;;;;;14.02;92.15;100232.00;5019297;28;1177;-83
2023/07/05 03:16:34;;;;;;;;;;;;;;;13.94;91.75;100224.19;5023888;28;1306;-84
2023/07/05 03:18:59;;;;;;;;;;;;;;;13.88;91.61;100236.09;5027997;28;1405;-83
2023/07/05 03:21:24;;;;;;;;;;;;;;;13.85;91.66;100227.75;5027699;28;1951;-82
2023/07/05 03:23:49;;;;;;;;;;;;;;;13.82;91.56;100232.31;5035049;28;1200;-85
2023/07/05 03:26:15;;;;;;;;;;;;;;;13.79;91.99;100237.84;5024090;28;1175;-83
2023/07/05 03:28:40;;;;;;;;;;;;;;;13.78;91.86;100238.03;5029111;28;1405;-83
2023/07/05 03:31:06;;;;;;;;;;;;;;;13.75;91.62;100231.31;5026230;28;1351;-83
2023/07/05 03:33:32;;;;;;;;;;;;;;;13.75;91.68;100236.53;5041041;28;1694;-84
2023/07/05 03:35:58;;;;;;;;;;;;;;;13.70;91.41;100245.81;5019891;28;1134;-83
2023/07/05 03:38:24;;;;;;;;;;;;;;;13.67;91.19;100233.91;5031887;28;1318;-82
2023/07/05 03:40:57;;;;;;;;;;;;;;;13.60;91.21;100243.34;5021019;28;1961;-83
2023/07/05 03:43:22;;;;;;;;;;;;;;;13.56;91.13;100247.25;5030932;28;1202;-83
2023/07/05 03:45:47;;;;;;;;;;;;;;;13.53;91.00;100242.34;5028280;28;1336;-82
2023/07/05 03:48:12;;;;;;;;;;;;;;;13.53;91.10;100250.16;5031651;28;1012;-82
2023/07/05 03:50:37;;;;;;;;;;;;;;;13.52;91.18;100240.72;5027518;28;1232;-84
2023/07/05 03:53:03;;;;;;;;;;;;;;;13.48;90.72;100244.63;5030249;28;1275;-80
2023/07/05 03:55:28;;;;;;;;;;;;;;;13.42;90.67;100240.03;5027253;28;1502;-83
2023/07/05 03:57:53;;;;;;;;;;;;;;;13.40;90.99;100236.78;5033254;28;1018;-83
2023/07/05 04:00:19;;;;;;;;;;;;;;;13.38;90.73;100233.50;5023604;28;1878;-84
2023/07/05 04:02:44;;;;;;;;;;;;;;;13.36;90.27;100235.44;5026471;28;1787;-83
2023/07/05 04:05:09;;;;;;;;;;;;;;;13.35;90.15;100237.22;5022100;28;1427;-83
2023/07/05 04:07:34;;;;;;;;;;;;;;;13.35;90.10;100239.03;5028221;28;1562;-82
2023/07/05 04:09:59;;;;;;;;;;;;;;;13.33;90.17;100240.97;5026326;28;1454;-83
2023/07/05 04:12:25;;;;;;;;;;;;;;;13.32;89.98;100234.16;5021796;28;1287;-83
2023/07/05 04:14:50;;;;;;;;;;;;;;;13.30;90.45;100226.47;5021911;28;1524;-83
2023/07/05 04:17:15;;;;;;;;;;;;;;;13.26;89.78;100225.97;5019645;28;1216;-83
2023/07/05 04:19:40;;;;;;;;;;;;;;;13.25;90.05;100234.78;5022538;28;1898;-86
2023/07/05 04:22:06;;;;;;;;;;;;;;;13.22;89.53;100219.44;5030806;28;1123;-83
2023/07/05 04:24:31;;;;;;;;;;;;;;;13.22;89.92;100211.63;5034762;28;1266;-85
2023/07/05 04:26:56;;;;;;;;;;;;;;;13.23;89.69;100221.06;5029367;28;1394;-84
2023/07/05 04:29:21;;;;;;;;;;;;;;;13.24;89.58;100212.28;5031981;28;1356;-85
2023/07/05 04:31:47;;;;;;;;;;;;;;;13.24;89.62;100212.28;5028935;28;1574;-84
2023/07/05 04:34:12;;;;;;;;;;;;;;;13.25;89.72;100224.34;5030707;28;1158;-83
2023/07/05 04:36:52;;;;;;;;;;;;;;;13.24;89.53;100235.72;5027695;28;993;-84
2023/07/05 04:39:18;;;;;;;;;;;;;;;13.24;89.47;100225.31;5026866;28;1879;-83
2023/07/05 04:41:43;;;;;;;;;;;;;;;13.25;89.84;100224.34;5026285;28;1216;-83
2023/07/05 04:44:09;;;;;;;;;;;;;;;13.24;89.63;100233.13;5028681;28;1475;-83
2023/07/05 04:46:34;;;;;;;;;;;;;;;13.24;89.89;100225.31;5026358;28;1389;-84
2023/07/05 04:49:00;;;;;;;;;;;;;;;13.23;89.47;100226.28;5022486;28;1266;-83
2023/07/05 04:51:25;;;;;;;;;;;;;;;13.26;89.78;100218.16;5036882;28;1212;-83
2023/07/05 04:53:50;;;;;;;;;;;;;;;13.26;89.65;100225.97;5034137;28;1297;-82
2023/07/05 04:56:16;;;;;;;;;;;;;;;13.31;89.37;100232.53;5035546;28;1530;-83
2023/07/05 04:58:42;;;;;;;;;;;;;;;13.36;89.39;100219.81;5033334;28;1293;-82
2023/07/05 05:01:07;;;;;;;;;;;;;;;13.42;89.26;100206.16;5030796;28;1886;-83
2023/07/05 05:03:33;;;;;;;;;;;;;;;13.45;89.26;100211.06;5037190;28;1261;-83
2023/07/05 05:05:58;;;;;;;;;;;;;;;13.48;89.18;100214.19;5034782;28;1305;-83
2023/07/05 05:08:26;;;;;;;;;;;;;;;13.57;88.91;100217.59;5033637;28;1291;-84
2023/07/05 05:10:58;;;;;;;;;;;;;;;13.60;89.05;100199.06;5030719;28;1307;-82
2023/07/05 05:13:24;;;;;;;;;;;;;;;13.61;88.62;100213.72;5028215;28;1342;-83
2023/07/05 05:15:49;;;;;;;;;;;;;;;13.58;88.71;100224.44;5035175;28;1317;-82
2023/07/05 05:18:15;;;;;;;;;;;;;;;13.58;88.51;100224.44;5021534;28;1310;-82
2023/07/05 05:20:40;;;;;;;;;;;;;;;13.59;88.78;100240.88;5033447;28;1942;-83
2023/07/05 05:23:06;;;;;;;;;;;;;;;13.62;88.76;100230.16;5032019;28;1249;-82
2023/07/05 05:25:32;;;;;;;;;;;;;;;13.61;88.70;100233.75;5027998;28;1278;-83
2023/07/05 05:27:57;;;;;;;;;;;;;;;13.63;88.59;100232.59;5032313;28;1361;-84
2023/07/05 05:30:22;;;;;;;;;;;;;;;13.59;88.50;100226.09;5040351;28;1049;-82
2023/07/05 05:32:47;;;;;;;;;;;;;;;13.59;88.92;100225.25;5029195;28;1042;-84
2023/07/05 05:35:13;;;;;;;;;;;;;;;13.62;88.62;100225.75;5019929;28;1633;-83
2023/07/05 05:37:39;;;;;;;;;;;;;;;13.60;88.24;100217.31;5031055;28;1287;-83
2023/07/05 05:40:05;;;;;;;;;;;;;;;13.64;88.06;100218.59;5025061;28;1952;-84
2023/07/05 05:42:30;;;;;;;;;;;;;;;13.62;87.96;100236.19;5028236;28;1356;-83
2023/07/05 05:44:56;;;;;;;;;;;;;;;13.65;87.76;100230.66;5033482;28;1207;-83
2023/07/05 05:47:21;;;;;;;;;;;;;;;13.62;87.69;100224.94;5024751;28;1385;-84
2023/07/05 05:49:46;;;;;;;;;;;;;;;13.53;88.51;100232.75;5024622;28;1320;-83
2023/07/05 05:52:11;;;;;;;;;;;;;;;13.50;88.14;100229.63;5023429;28;1358;-84
2023/07/05 05:54:36;;;;;;;;;;;;;;;13.45;88.05;100229.28;5028155;28;1329;-83
2023/07/05 05:57:02;;;;;;;;;;;;;;;13.44;88.35;100222.47;5026134;28;1294;-83
2023/07/05 05:59:27;;;;;;;;;;;;;;;13.42;87.66;100238.25;5025581;28;1890;-85
2023/07/05 06:01:52;;;;;;;;;;;;;;;13.40;88.15;100231.56;5028476;28;1242;-83
2023/07/05 06:04:17;;;;;;;;;;;;;;;13.45;88.30;100231.91;5022183;28;1305;-83
2023/07/05 06:06:43;;;;;;;;;;;;;;;13.53;88.33;100237.13;5025833;28;1313;-83
2023/07/05 06:09:08;;;;;;;;;;;;;;;13.64;87.75;100234.22;5036081;28;1311;-83
2023/07/05 06:11:33;;;;;;;;;;;;;;;13.71;88.16;100240.44;5034125;28;1163;-83
2023/07/05 06:13:58;;;;;;;;;;;;;;;13.66;88.19;100253.13;5033476;28;1185;-84
2023/07/05 06:16:23;;;;;;;;;;;;;;;13.67;87.57;100223.50;5035175;28;1303;-84
2023/07/05 06:18:49;;;;;;;;;;;;;;;13.54;88.04;100244.81;5030185;28;1353;-84
2023/07/05 06:21:14;;;;;;;;;;;;;;;13.47;88.26;100237.75;5028426;28;1919;-85
2023/07/05 06:23:39;;;;;;;;;;;;;;;13.42;88.46;100240.03;5032530;28;1149;-85
2023/07/05 06:26:04;;;;;;;;;;;;;;;13.35;88.97;100242.44;5034185;28;1268;-83
2023/07/05 06:28:29;;;;;;;;;;;;;;;13.25;89.07;100255.63;5037566;28;1223;-86
2023/07/05 06:30:55;;;;;;;;;;;;;;;13.37;89.30;100263.16;5028593;28;1369;-85
2023/07/05 06:33:20;;;;;;;;;;;;;;;13.13;90.15;100272.44;5029605;28;1308;-85
2023/07/05 06:35:49;;;;;;;;;;;;;;;13.13;90.45;100285.47;5032911;28;1331;-84
2023/07/05 06:38:14;;;;;;;;;;;;;;;13.09;90.73;100276.31;5025965;28;1172;-85
2023/07/05 06:40:52;;;;;;;;;;;;;;;13.10;90.69;100290.97;5031096;28;1914;-84
2023/07/05 06:43:17;;;;;;;;;;;;;;;13.05;91.58;100287.19;5022496;28;1455;-85
2023/07/05 06:45:46;;;;;;;;;;;;;;;13.04;91.26;100283.78;5035090;28;1097;-85
2023/07/05 06:48:11;;;;;;;;;;;;;;;13.03;91.30;100287.34;5034218;28;1307;-84
2023/07/05 06:50:36;;;;;;;;;;;;;;;13.07;91.06;100298.25;5027605;28;1275;-85
2023/07/05 06:53:01;;;;;;;;;;;;;;;12.98;91.07;100306.03;5027897;28;1218;-85
2023/07/05 06:55:27;;;;;;;;;;;;;;;13.00;92.01;100308.47;5022719;28;1549;-85
2023/07/05 06:57:52;;;;;;;;;;;;;;;12.93;91.54;100323.09;5033590;28;1200;-87
2023/07/05 07:00:17;;;;;;;;;;;;;;;12.91;92.60;100314.63;5027278;28;1894;-87
2023/07/05 07:02:42;;;;;;;;;;;;;;;12.82;92.52;100341.53;5026554;28;1480;-87
2023/07/05 07:05:08;;;;;;;;;;;;;;;12.76;92.80;100354.19;5030315;28;1242;-86
2023/07/05 07:07:33;;;;;;;;;;;;;;;12.68;93.23;100340.31;5020410;28;1314;-85
2023/07/05 07:10:00;;;;;;;;;;;;;;;12.61;93.79;100328.84;5028019;28;1184;-85
2023/07/05 07:12:26;;;;;;;;;;;;;;;12.57;93.89;100324.94;5030771;28;1203;-86
2023/07/05 07:14:51;;;;;;;;;;;;;;;12.53;94.42;100334.00;5019427;28;1218;-85
2023/07/05 07:17:17;;;;;;;;;;;;;;;12.43;94.40;100324.47;5024930;28;1419;-86
2023/07/05 07:19:42;;;;;;;;;;;;;;;12.42;95.23;100335.03;5027133;28;1893;-88
2023/07/05 07:22:07;;;;;;;;;;;;;;;12.42;95.41;100345.44;5025620;28;1350;-84
2023/07/05 07:24:32;;;;;;;;;;;;;;;12.48;95.81;100352.66;5027204;28;1252;-85
2023/07/05 07:26:57;;;;;;;;;;;;;;;12.49;95.89;100336.06;5026205;28;1306;-85
2023/07/05 07:29:23;;;;;;;;;;;;;;;12.49;96.20;100343.88;5034992;28;1132;-86
2023/07/05 07:31:48;;;;;;;;;;;;;;;12.54;96.04;100352.06;5038911;28;1210;-85
2023/07/05 07:34:13;;;;;;;;;;;;;;;12.59;96.54;100352.44;5031375;28;1318;-83
2023/07/05 07:36:38;;;;;;;;;;;;;;;12.64;96.36;100360.59;5034757;28;1584;-85
2023/07/05 07:39:04;;;;;;;;;;;;;;;12.67;96.86;100365.53;5028685;28;1206;-87
2023/07/05 07:41:30;;;;;;;;;;;;;;;12.70;96.89;100360.00;5040916;28;1890;-87
2023/07/05 07:43:58;;;;;;;;;;;;;;;12.66;96.28;100358.66;5033922;28;1337;-85
2023/07/05 07:46:25;;;;;;;;;;;;;;;12.70;96.67;100364.38;5035455;28;1142;-85
2023/07/05 07:48:51;;;;;;;;;;;;;;;12.80;96.48;100372.13;5026479;28;1043;-84
2023/07/05 07:51:17;;;;;;;;;;;;;;;12.72;96.78;100368.47;5026108;28;1354;-85
2023/07/05 07:53:42;;;;;;;;;;;;;;;12.75;96.03;100372.56;5026621;28;1496;-86
2023/07/05 07:56:11;;;;;;;;;;;;;;;12.73;96.70;100370.13;5032101;28;1599;-85
2023/07/05 07:58:36;;;;;;;;;;;;;;;12.77;96.59;100392.25;5023811;28;1248;-85
2023/07/05 08:01:20;;;;;;;;;;;;;;;12.84;95.51;100422.88;5023758;28;1972;-85
2023/07/05 08:03:46;;;;;;;;;;;;;;;12.88;95.97;100413.81;5024347;28;1293;-85
2023/07/05 08:06:11;;;;;;;;;;;;;;;12.75;96.12;100422.81;5023334;28;1577;-86
2023/07/05 08:08:51;;;;;;;;;;;;;;;12.73;95.70;100421.31;5029029;28;1193;-86
2023/07/05 08:11:16;;;;;;;;;;;;;;;12.73;96.07;100436.94;5024667;28;1280;-86
2023/07/05 08:13:44;;;;;;;;;;;;;;;12.79;96.95;100430.31;5028525;28;1317;-85
2023/07/05 08:16:09;;;;;;;;;;;;;;;12.69;96.87;100430.41;5028139;28;1195;-87
2023/07/05 08:18:34;;;;;;;;;;;;;;;12.69;97.00;100431.22;5024425;28;1266;-85
2023/07/05 08:21:00;;;;;;;;;;;;;;;12.69;96.74;100436.44;5020945;28;1983;-85
2023/07/05 08:23:25;;;;;;;;;;;;;;;12.72;97.74;100430.09;5029274;28;1349;-86
2023/07/05 08:25:54;;;;;;;;;;;;;;;12.81;97.17;100421.41;5025602;28;1611;-86
2023/07/05 08:28:23;;;;;;;;;;;;;;;12.89;96.90;100428.47;5028474;28;1365;-85
2023/07/05 08:30:56;;;;;;;;;;;;;;;13.01;97.38;100442.88;5026847;28;1186;-87
2023/07/05 08:33:22;;;;;;;;;;;;;;;12.97;97.46;100455.41;5041062;28;1451;-85
2023/07/05 08:35:49;;;;;;;;;;;;;;;13.00;97.90;100446.44;5026587;28;1323;-86
2023/07/05 08:38:18;;;;;;;;;;;;;;;12.99;97.80;100452.63;5032849;28;1438;-84
2023/07/05 08:40:45;;;;;;;;;;;;;;;12.96;98.09;100458.13;5033197;28;1906;-86
2023/07/05 08:43:18;;;;;;;;;;;;;;;12.95;97.97;100472.13;5035136;28;1148;-87
2023/07/05 08:45:45;;;;;;;;;;;;;;;13.01;98.27;100471.50;5025302;28;1305;-86
2023/07/05 08:48:12;;;;;;;;;;;;;;;13.11;98.35;100476.66;5033134;28;1310;-84
2023/07/05 08:50:41;;;;;;;;;;;;;;;13.13;98.30;100472.94;5030130;28;1128;-86
2023/07/05 08:53:10;;;;;;;;;;;;;;;13.26;98.80;100481.22;5020822;28;1394;-85
2023/07/05 08:55:38;;;;;;;;;;;;;;;13.33;98.64;100470.19;5021930;28;1435;-84
2023/07/05 08:58:05;;;;;;;;;;;;;;;13.49;98.73;100475.53;5026228;28;1215;-84
2023/07/05 09:00:51;;;;;;;;;;;;;;;13.72;97.95;100489.69;5026938;28;1894;-85
2023/07/05 09:03:17;;;;;;;;;;;;;;;13.90;98.43;100494.81;5023338;28;1243;-84
2023/07/05 09:05:52;;;;;;;;;;;;;;;14.11;98.64;100470.97;5030159;28;1296;-83
2023/07/05 09:08:17;;;;;;;;;;;;;;;14.38;98.00;100492.59;5024994;28;1303;-83
2023/07/05 09:10:47;;;;;;;;;;;;;;;14.69;96.89;100488.47;5024469;28;1319;-83
2023/07/05 09:13:12;;;;;;;;;;;;;;;14.66;95.93;100491.41;5031241;28;1243;-84
2023/07/05 09:15:42;;;;;;;;;;;;;;;14.74;95.58;100509.69;5026341;28;1344;-85
2023/07/05 09:18:20;;;;;;;;;;;;;;;14.90;95.08;100514.13;5023073;28;1164;-84
2023/07/05 09:21:02;;;;;;;;;;;;;;;15.08;93.17;100516.59;5023166;28;1910;-85
2023/07/05 09:23:51;;;;;;;;;;;;;;;15.09;93.01;100513.03;5026674;28;1326;-85
2023/07/05 09:26:32;;;;;;;;;;;;;;;15.21;93.73;100532.63;5026062;28;1338;-82
2023/07/05 09:29:03;;;;;;;;;;;;;;;15.33;92.79;100547.00;5023540;28;1419;-84
2023/07/05 09:31:28;;;;;;;;;;;;;;;15.34;92.07;100553.84;5036427;28;1357;-85
2023/07/05 09:34:07;;;;;;;;;;;;;;;15.32;91.68;100563.66;5035325;28;1261;-84
2023/07/05 09:36:33;;;;;;;;;;;;;;;15.44;91.13;100563.34;5035455;28;1027;-85
2023/07/05 09:39:16;;;;;;;;;;;;;;;15.60;89.27;100564.16;5031540;28;1377;-85
2023/07/05 09:41:46;;;;;;;;;;;;;;;15.69;89.57;100578.06;5022932;28;1918;-85
2023/07/05 09:44:11;;;;;;;;;;;;;;;15.79;89.91;100578.72;5034511;28;1335;-85
2023/07/05 09:46:37;;;;;;;;;;;;;;;15.99;89.05;100586.19;5022644;28;1211;-85
2023/07/05 09:49:08;;;;;;;;;;;;;;;16.11;88.70;100582.25;5027411;28;1314;-85
2023/07/05 09:51:34;;;;;;;;;;;;;;;16.18;85.98;100583.22;5025043;28;1228;-85
2023/07/05 09:54:00;;;;;;;;;;;;;;;16.18;85.15;100583.22;5030882;28;1310;-84
2023/07/05 09:56:29;;;;;;;;;;;;;;;16.33;83.39;100605.09;5027599;28;1223;-84
2023/07/05 09:59:15;;;;;;;;;;;;;;;16.31;82.81;100609.69;5025324;28;1885;-84
2023/07/05 10:01:42;;;;;;;;;;;;;;;16.42;84.10;100600.66;5027662;28;1889;-84
2023/07/05 10:04:07;;;;;;;;;;;;;;;16.59;82.81;100606.66;5022364;28;1308;-83
2023/07/05 10:06:33;;;;;;;;;;;;;;;16.72;82.54;100618.25;5027072;28;1287;-84
2023/07/05 10:09:11;;;;;;;;;;;;;;;16.86;81.90;100624.59;5028665;28;1271;-84
2023/07/05 10:11:41;;;;;;;;;;;;;;;16.92;78.95;100639.63;5025021;28;1499;-84
2023/07/05 10:14:06;;;;;;;;;;;;;;;16.99;80.09;100651.03;5027506;28;1309;-84
2023/07/05 10:16:45;;;;;;;;;;;;;;;17.12;78.95;100649.66;5021005;28;1736;-85
2023/07/05 10:19:30;;;;;;;;;;;;;;;17.16;76.84;100648.34;5023718;28;1792;-84
2023/07/05 10:22:07;;;;;;;;;;;;;;;17.28;73.91;100652.19;5023272;28;1276;-86
2023/07/05 10:24:40;;;;;;;;;;;;;;;17.05;71.76;100653.97;5022998;28;1218;-85
2023/07/05 10:27:23;;;;;;;;;;;;;;;16.92;72.44;100676.28;5024943;28;1573;-86
2023/07/05 10:29:50;;;;;;;;;;;;;;;16.78;70.51;100690.09;5024739;28;1455;-85
2023/07/05 10:32:18;;;;;;;;;;;;;;;16.69;70.54;100680.59;5025217;28;1785;-87
2023/07/05 10:34:47;;;;;;;;;;;;;;;16.72;70.30;100680.28;5037181;28;1618;-84
2023/07/05 10:37:31;;;;;;;;;;;;;;;16.81;70.41;100700.22;5022074;28;1467;-86
2023/07/05 10:40:09;;;;;;;;;;;;;;;16.94;71.42;100715.41;5039053;28;1953;-84
2023/07/05 10:42:35;;;;;;;;;;;;;;;17.09;71.03;100712.88;5029480;28;1313;-85
2023/07/05 10:45:04;;;;;;;;;;;;;;;17.26;69.34;100703.97;5031083;28;1326;-86
2023/07/05 10:47:32;;;;;;;;;;;;;;;17.37;70.00;100727.16;5027292;28;1263;-88
2023/07/05 10:50:03;;;;;;;;;;;;;;;17.49;70.95;100725.81;5027761;28;1463;-87
2023/07/05 10:52:31;;;;;;;;;;;;;;;17.68;69.60;100723.72;5028190;28;1497;-85
2023/07/05 10:55:03;;;;;;;;;;;;;;;17.77;67.91;100733.19;5029291;28;1465;-85
2023/07/05 10:57:38;;;;;;;;;;;;;;;17.72;66.82;100735.53;5021957;28;1188;-86
2023/07/05 11:00:14;;;;;;;;;;;;;;;17.76;65.57;100732.38;5020278;28;1898;-87
2023/07/05 11:02:49;;;;;;;;;;;;;;;17.88;66.02;100745.91;5023261;28;1265;-87
2023/07/05 11:05:29;;;;;;;;;;;;;;;18.00;65.86;100741.88;5024542;28;1359;-88
2023/07/05 11:08:01;;;;;;;;;;;;;;;18.07;64.67;100743.84;5026047;28;1327;-87
2023/07/05 11:10:27;;;;;;;;;;;;;;;18.15;64.59;100746.38;5019875;28;1536;-86
2023/07/05 11:13:02;;;;;;;;;;;;;;;18.15;63.47;100751.63;5030306;28;1057;-88
2023/07/05 11:15:34;;;;;;;;;;;;;;;18.24;63.59;100767.16;5027104;28;1279;-87
2023/07/05 11:18:00;;;;;;;;;;;;;;;18.30;64.46;100765.63;5023483;28;1114;-88
2023/07/05 11:20:41;;;;;;;;;;;;;;;;;;;;;
2023/07/05 11:23:33;;;;;;;;;;;;;;;18.52;63.52;100764.78;5029602;28;1279;-89
2023/07/05 11:25:59;;;;;;;;;;;;;;;18.68;62.12;100768.25;5021705;28;1433;-87
2023/07/05 11:28:41;;;;;;;;;;;;;;;18.61;60.29;100764.69;5015912;28;1284;-88
2023/07/05 11:31:29;;;;;;;;;;;;;;;18.38;59.51;100794.44;5026709;28;1404;-88
2023/07/05 11:34:16;;;;;;;;;;;;;;;18.34;58.97;100787.88;5016129;28;1445;-86
2023/07/05 11:37:04;;;;;;;;;;;;;;;18.21;60.00;100792.94;5021968;28;1424;-89
2023/07/05 11:39:51;;;;;;;;;;;;;;;18.14;61.04;100794.63;5027972;28;1366;-88
2023/07/05 11:42:20;;;;;;;;;;;;;;;18.20;61.44;100807.06;5033326;28;1329;-86
2023/07/05 11:44:58;;;;;;;;;;;;;;;18.14;61.35;100802.50;5025127;28;1286;-89
2023/07/05 11:47:45;;;;;;;;;;;;;;;18.12;61.82;100822.84;5026119;28;1538;-91
2023/07/05 11:50:22;;;;;;;;;;;;;;;18.27;60.46;100815.84;5021894;28;1312;-88
2023/07/05 11:56:24;;;;;;;;;;;;;;;18.22;60.95;100831.31;4979818;28;1492;-88
2023/07/05 11:59:08;;;;;;;;;;;;;;;18.31;61.07;100835.53;5030020;28;1376;-89
2023/07/05 12:05:06;;;;;;;;;;;;;;;18.63;59.98;100850.19;4982460;28;2142;-90
2023/07/05 12:07:49;;;;;;;;;;;;;;;18.58;59.14;100842.88;4983480;28;1395;-87
2023/07/05 12:10:39;;;;;;;;;;;;;;;18.46;58.03;100849.50;5022806;28;1433;-88
2023/07/05 12:16:38;;;;;;;;;;;;;;;18.34;58.46;100864.03;5023403;28;1428;-90
2023/07/05 12:25:19;;;;;;;;;;;;;;;18.20;58.17;100876.13;5010501;28;1466;-88
2023/07/05 12:37:42;;;;;;;;;;;;;;;18.05;58.69;100899.66;4939159;28;1472;-88
2023/07/05 12:43:36;;;;;;;;;;;;;;;18.10;58.93;100900.94;4831621;29;1330;-91
2023/07/05 12:49:41;;;;;;;;;;;;;;;18.13;58.52;100905.88;4829730;29;1492;-88
2023/07/05 12:52:25;;;;;;;;;;;;;;;18.14;58.71;100910.13;4830640;29;1227;-88
2023/07/05 12:55:30;;;;;;;;;;;;;;;18.15;58.83;100914.38;4855954;29;1371;-87
2023/07/05 12:58:27;;;;;;;;;;;;;;;;;;;;;
2023/07/05 13:00:53;;;;;;;;;;;;;;;18.08;58.58;100931.81;4944427;23;1974;-75
2023/07/05 13:03:19;;;;;;;;;;;;;;;17.97;57.56;100933.81;5025484;28;1339;-74
2023/07/05 13:05:45;;;;;;;;;;;;;;;17.94;57.63;100939.41;5023862;28;1347;-75
2023/07/05 13:08:11;;;;;;;;;;;;;;;17.91;58.91;100924.00;5031371;28;1314;-76
2023/07/05 13:10:37;;;;;;;;;;;;;;;18.03;58.51;100948.88;5026533;28;1535;-75
2023/07/05 13:13:21;;;;;;;;;;;;;;;18.20;60.20;100948.81;5028750;28;1449;-75
2023/07/05 13:15:46;;;;;;;;;;;;;;;18.40;59.04;100946.56;5025421;28;1235;-75
2023/07/05 13:18:21;;;;;;;;;;;;;;;18.37;58.68;100966.13;5028708;28;1390;-75
2023/07/05 13:20:47;;;;;;;;;;;;;;;18.46;58.27;100959.81;5031943;28;1910;-74
2023/07/05 13:23:12;;;;;;;;;;;;;;;18.47;58.37;100956.22;5027577;28;1070;-73
2023/07/05 13:25:44;;;;;;;;;;;;;;;18.32;58.39;100968.44;5024007;28;1421;-74
2023/07/05 13:28:20;;;;;;;;;;;;;;;18.37;58.83;100979.25;5029395;28;1055;-74
2023/07/05 13:30:50;;;;;;;;;;;;;;;18.62;59.05;100973.84;5024544;28;1049;-74